createdAt,value
2022-12-04T00:02:00.716Z,100715.09
2022-12-04T00:07:02.206Z,100722.31
2022-12-04T00:12:03.977Z,100728.03
2022-12-04T00:17:05.428Z,100724.88
2022-12-04T00:22:06.908Z,100701.09
2022-12-04T00:27:08.339Z,100706.44
2022-12-04T00:32:09.828Z,100706.91
2022-12-04T00:37:12.759Z,100713.16
2022-12-04T00:42:14.232Z,100705.94
2022-12-04T00:47:15.630Z,100703.19
2022-12-04T00:52:17.124Z,100705.13
2022-12-04T00:57:18.580Z,100691.16
2022-12-04T01:02:19.989Z,100701.69
2022-12-04T01:07:21.455Z,100690.78
2022-12-04T01:12:22.882Z,100691.56
2022-12-04T01:17:24.279Z,100683.31
2022-12-04T01:22:25.724Z,100676.38
2022-12-04T01:27:27.157Z,100670.91
2022-12-04T01:32:28.904Z,100665.84
2022-12-04T01:37:33.381Z,100658.75
2022-12-04T01:42:34.829Z,100663.59
2022-12-04T01:47:36.304Z,100668.28
2022-12-04T01:52:37.766Z,100665.75
2022-12-04T01:57:39.298Z,100658.75
2022-12-04T02:02:46.737Z,100644.00
2022-12-04T02:07:51.088Z,100638.31
2022-12-04T02:13:34.128Z,100660.59
2022-12-04T02:18:46.428Z,100653.38
2022-12-04T02:23:59.716Z,100653.25
2022-12-04T02:29:19.571Z,100644.91
2022-12-04T02:34:29.426Z,100644.66
2022-12-04T02:39:46.059Z,100647.97
2022-12-04T02:45:01.539Z,100641.00
2022-12-04T02:50:16.477Z,100654.91
2022-12-04T02:55:24.629Z,100644.97
2022-12-04T03:00:26.908Z,100654.47
2022-12-04T03:05:41.219Z,100642.25
2022-12-04T03:10:56.249Z,100650.56
2022-12-04T03:16:22.241Z,100639.28
2022-12-04T03:21:29.598Z,100647.56
2022-12-04T03:26:38.086Z,100638.16
2022-12-04T03:32:20.369Z,100637.38
2022-12-04T03:38:04.986Z,100650.28
2022-12-04T03:43:12.929Z,100648.41
2022-12-04T03:48:25.078Z,100657.94
2022-12-04T03:53:39.321Z,100645.66
2022-12-04T03:58:46.245Z,100633.34
2022-12-04T04:03:51.842Z,100645.47
2022-12-04T04:08:59.295Z,100637.41
2022-12-04T04:14:22.250Z,100632.75
2022-12-04T04:19:46.747Z,100626.41
2022-12-04T04:24:57.694Z,100625.34
2022-12-04T04:29:59.718Z,100620.75
2022-12-04T04:35:22.606Z,100614.56
2022-12-04T04:40:31.312Z,100607.63
2022-12-04T04:45:42.832Z,100620.56
2022-12-04T04:50:45.598Z,100623.34
2022-12-04T04:55:48.068Z,100614.47
2022-12-04T05:00:55.262Z,100606.69
2022-12-04T05:05:57.337Z,100615.75
2022-12-04T05:10:58.798Z,100616.22
2022-12-04T05:16:03.585Z,100626.31
2022-12-04T05:21:06.961Z,100628.06
2022-12-04T05:26:08.548Z,100631.41
2022-12-04T05:31:10.121Z,100614.59
2022-12-04T05:36:13.275Z,100614.81
2022-12-04T05:41:14.776Z,100616.66
2022-12-04T05:46:16.928Z,100617.38
2022-12-04T05:51:18.462Z,100620.88
2022-12-04T05:56:20.098Z,100626.88
2022-12-04T06:01:23.523Z,100637.53
2022-12-04T06:06:26.193Z,100631.28
2022-12-04T06:11:33.546Z,100634.06
2022-12-04T06:16:39.493Z,100646.78
2022-12-04T06:21:42.791Z,100643.41
2022-12-04T06:27:10.950Z,100656.63
2022-12-04T06:32:06.751Z,100661.38
2022-12-04T06:37:09.420Z,100666.72
2022-12-04T06:42:10.824Z,100667.50
2022-12-04T06:47:12.279Z,100668.31
2022-12-04T06:52:13.701Z,100660.94
2022-12-04T06:57:15.107Z,100657.00
2022-12-04T07:02:16.586Z,100649.56
2022-12-04T07:07:18.040Z,100654.09
2022-12-04T07:12:19.506Z,100648.69
2022-12-04T07:17:21.034Z,100644.84
2022-12-04T07:22:22.464Z,100640.19
2022-12-04T07:27:23.875Z,100639.97
2022-12-04T07:32:25.284Z,100646.56
2022-12-04T07:37:26.707Z,100647.53
2022-12-04T07:42:29.071Z,100656.88
2022-12-04T07:47:30.531Z,100676.22
2022-12-04T07:52:36.059Z,100672.38
2022-12-04T07:57:37.454Z,100664.09
2022-12-04T08:02:38.911Z,100651.19
2022-12-04T08:07:40.347Z,100653.59
2022-12-04T08:12:41.856Z,100645.16
2022-12-04T08:17:43.277Z,100659.44
2022-12-04T08:22:44.730Z,100665.59
2022-12-04T08:27:47.968Z,100660.97
2022-12-04T08:32:49.411Z,100663.34
2022-12-04T08:37:50.831Z,100660.19
2022-12-04T08:42:52.290Z,100661.66
2022-12-04T08:47:53.771Z,100663.41
2022-12-04T08:52:55.237Z,100664.59
2022-12-04T08:57:56.649Z,100688.09
2022-12-04T09:02:58.066Z,100685.41
2022-12-04T09:07:59.519Z,100667.19
2022-12-04T09:13:01.000Z,100664.19
2022-12-04T09:18:02.401Z,100668.94
2022-12-04T09:23:05.533Z,100663.88
2022-12-04T09:28:07.213Z,100665.56
2022-12-04T09:33:08.749Z,100663.63
2022-12-04T09:38:10.218Z,100671.78
2022-12-04T09:43:20.912Z,100660.44
2022-12-04T09:48:32.129Z,100663.78
2022-12-04T09:53:52.788Z,100644.56
2022-12-04T09:58:57.434Z,100648.53
2022-12-04T10:04:05.721Z,100645.59
2022-12-04T10:09:22.206Z,100632.34
2022-12-04T10:14:39.546Z,100621.41
2022-12-04T10:19:59.443Z,100631.38
2022-12-04T10:25:08.380Z,100634.94
2022-12-04T10:30:26.477Z,100631.09
2022-12-04T10:35:30.654Z,100614.63
2022-12-04T10:40:44.035Z,100617.56
2022-12-04T10:45:45.481Z,100615.69
2022-12-04T10:50:46.987Z,100612.78
2022-12-04T10:55:48.590Z,100602.38
2022-12-04T11:01:05.762Z,100597.34
2022-12-04T11:06:10.038Z,100584.88
2022-12-04T11:11:14.343Z,100599.44
2022-12-04T11:16:33.942Z,100578.38
2022-12-04T11:21:35.532Z,100580.47
2022-12-04T11:26:41.927Z,100577.09
2022-12-04T11:31:50.034Z,100577.09
2022-12-04T11:36:57.093Z,100562.31
2022-12-04T11:42:24.907Z,100555.47
2022-12-04T11:47:29.938Z,100555.13
2022-12-04T11:52:48.211Z,100552.16
2022-12-04T11:58:15.473Z,100552.16
2022-12-04T12:03:27.981Z,100558.81
2022-12-04T12:08:44.507Z,100548.72
2022-12-04T12:13:57.817Z,100542.66
2022-12-04T12:19:23.689Z,100547.88
2022-12-04T12:24:32.109Z,100557.19
2022-12-04T12:30:04.062Z,100558.31
2022-12-04T12:35:31.898Z,100558.41
2022-12-04T12:40:39.840Z,100562.63
2022-12-04T12:46:03.078Z,100570.31
2022-12-04T12:51:28.976Z,100560.63
2022-12-04T12:56:38.288Z,100565.13
2022-12-04T13:01:48.449Z,100553.19
2022-12-04T13:07:20.746Z,100540.66
2022-12-04T13:12:23.815Z,100538.94
2022-12-04T13:17:37.033Z,100543.34
2022-12-04T13:23:10.598Z,100524.31
2022-12-04T13:28:20.807Z,100519.78
2022-12-04T13:33:54.880Z,100517.72
2022-12-04T13:39:02.080Z,100512.88
2022-12-04T13:44:13.911Z,100506.50
2022-12-04T13:49:18.981Z,100507.53
2022-12-04T13:54:32.600Z,100500.22
2022-12-04T13:59:37.561Z,100522.00
2022-12-04T14:04:46.440Z,100542.06
2022-12-04T14:09:53.519Z,100538.75
2022-12-04T14:15:00.177Z,100536.50
2022-12-04T14:20:08.099Z,100541.00
2022-12-04T14:25:12.640Z,100546.53
2022-12-04T14:30:22.893Z,100551.41
2022-12-04T14:35:27.792Z,100550.63
2022-12-04T14:40:37.362Z,100553.41
2022-12-04T14:46:00.257Z,100571.94
2022-12-04T14:51:29.507Z,100576.78
2022-12-04T14:56:39.738Z,100569.06
2022-12-04T15:01:41.373Z,100566.38
2022-12-04T15:06:44.958Z,100556.94
2022-12-04T15:12:08.129Z,100557.16
2022-12-04T15:17:14.055Z,100560.56
2022-12-04T15:22:24.988Z,100556.38
2022-12-04T15:27:32.283Z,100561.16
2022-12-04T15:32:34.572Z,100566.81
2022-12-04T15:37:36.355Z,100566.31
2022-12-04T15:42:37.804Z,100574.66
2022-12-04T15:47:59.546Z,100589.16
2022-12-04T15:53:13.213Z,100585.81
2022-12-04T15:58:35.720Z,100583.59
2022-12-04T16:03:48.716Z,100580.19
2022-12-04T16:08:58.410Z,100582.00
2022-12-04T16:14:09.095Z,100573.25
2022-12-04T16:19:28.835Z,100587.06
2022-12-04T16:24:30.684Z,100595.78
2022-12-04T16:29:32.203Z,100580.66
2022-12-04T16:34:33.694Z,100582.63
2022-12-04T16:39:41.074Z,100589.38
2022-12-04T16:44:42.924Z,100579.09
2022-12-04T16:49:47.123Z,100584.53
2022-12-04T16:54:48.556Z,100585.66
2022-12-04T16:59:50.053Z,100595.44
2022-12-04T17:04:57.050Z,100591.41
2022-12-04T17:09:59.107Z,100605.84
2022-12-04T17:15:00.589Z,100600.75
2022-12-04T17:20:02.204Z,100595.41
2022-12-04T17:25:04.463Z,100600.75
2022-12-04T17:30:07.352Z,100601.16
2022-12-04T17:35:11.298Z,100607.94
2022-12-04T17:40:14.384Z,100610.88
2022-12-04T17:45:16.965Z,100599.16
2022-12-04T17:50:18.470Z,100607.28
2022-12-04T17:55:19.877Z,100605.63
2022-12-04T18:00:21.338Z,100604.63
2022-12-04T18:05:23.573Z,100606.34
2022-12-04T18:10:24.992Z,100608.84
2022-12-04T18:15:26.440Z,100603.25
2022-12-04T18:20:27.860Z,100591.66
2022-12-04T18:25:29.265Z,100590.22
2022-12-04T18:30:30.686Z,100601.69
2022-12-04T18:35:32.126Z,100595.81
2022-12-04T18:40:36.965Z,100589.94
2022-12-04T18:45:38.475Z,100583.78
2022-12-04T18:50:40.001Z,100592.34
2022-12-04T18:55:41.413Z,100591.28
2022-12-04T19:00:42.940Z,100590.88
2022-12-04T19:05:49.100Z,100589.41
2022-12-04T19:10:50.585Z,100589.28
2022-12-04T19:15:52.004Z,100594.63
2022-12-04T19:20:53.495Z,100591.41
2022-12-04T19:25:56.827Z,100597.16
2022-12-04T19:30:58.345Z,100601.31
2022-12-04T19:36:03.145Z,100597.97
2022-12-04T19:41:17.240Z,100602.75
2022-12-04T19:46:22.400Z,100609.56
2022-12-04T19:51:24.885Z,100611.25
2022-12-04T19:56:27.391Z,100607.34
2022-12-04T20:01:30.498Z,100606.66
2022-12-04T20:06:41.068Z,100596.47
2022-12-04T20:11:42.638Z,100604.63
2022-12-04T20:16:44.245Z,100603.72
2022-12-04T20:21:46.370Z,100611.50
2022-12-04T20:26:47.845Z,100615.25
2022-12-04T20:31:49.366Z,100619.34
2022-12-04T20:36:50.954Z,100619.38
2022-12-04T20:41:52.427Z,100617.56
2022-12-04T20:46:53.898Z,100613.47
2022-12-04T20:51:55.298Z,100612.38
2022-12-04T20:56:57.123Z,100617.25
2022-12-04T21:01:59.516Z,100613.19
2022-12-04T21:07:00.962Z,100601.97
2022-12-04T21:12:03.653Z,100591.41
2022-12-04T21:17:09.628Z,100589.41
2022-12-04T21:22:11.122Z,100581.69
2022-12-04T21:27:18.892Z,100588.88
2022-12-04T21:32:22.306Z,100582.09
2022-12-04T21:37:23.722Z,100571.06
2022-12-04T21:42:33.160Z,100571.66
2022-12-04T21:47:35.269Z,100573.53
2022-12-04T21:52:36.751Z,100574.25
2022-12-04T21:57:38.192Z,100580.59
2022-12-04T22:02:39.980Z,100571.53
2022-12-04T22:07:42.584Z,100571.06
2022-12-04T22:12:50.071Z,100565.66
2022-12-04T22:17:52.076Z,100571.28
2022-12-04T22:22:53.506Z,100552.91
2022-12-04T22:27:54.966Z,100551.50
2022-12-04T22:32:56.739Z,100547.91
2022-12-04T22:37:58.147Z,100567.00
2022-12-04T22:42:59.589Z,100555.47
2022-12-04T22:48:01.010Z,100559.38
2022-12-04T22:53:02.429Z,100539.03
2022-12-04T22:58:03.849Z,100543.75
2022-12-04T23:03:05.404Z,100549.78
2022-12-04T23:08:07.512Z,100543.09
2022-12-04T23:13:09.025Z,100535.16
2022-12-04T23:18:10.549Z,100536.47
2022-12-04T23:23:11.978Z,100520.53
2022-12-04T23:28:13.432Z,100514.53
2022-12-04T23:33:14.843Z,100522.22
2022-12-04T23:38:16.255Z,100534.03
2022-12-04T23:43:17.795Z,100526.41
2022-12-04T23:48:19.288Z,100529.91
2022-12-04T23:53:21.498Z,100527.78
2022-12-04T23:58:23.047Z,100522.94
